createdAt,value
2022-12-27T00:01:44.959Z,64.50
2022-12-27T00:04:13.172Z,52.28
2022-12-27T00:06:42.202Z,61.17
2022-12-27T00:09:11.026Z,55.45
2022-12-27T00:11:40.203Z,28.08
2022-12-27T00:14:08.863Z,16.92
2022-12-27T00:16:36.960Z,16.95
2022-12-27T00:19:07.289Z,16.58
2022-12-27T00:21:36.735Z,14.35
2022-12-27T00:24:05.529Z,12.10
2022-12-27T00:26:35.537Z,11.43
2022-12-27T00:29:04.473Z,13.40
2022-12-27T00:31:33.699Z,11.82
2022-12-27T00:34:04.000Z,12.50
2022-12-27T00:36:34.559Z,12.30
2022-12-27T00:39:03.060Z,12.73
2022-12-27T00:41:31.296Z,15.52
2022-12-27T00:43:59.509Z,14.20
2022-12-27T00:46:27.619Z,11.13
2022-12-27T00:48:57.669Z,10.05
2022-12-27T00:51:26.976Z,10.35
2022-12-27T00:53:57.343Z,12.07
2022-12-27T00:56:28.038Z,6.63
2022-12-27T00:58:58.863Z,9.60
2022-12-27T01:01:29.484Z,7.30
2022-12-27T01:03:58.680Z,7.03
2022-12-27T01:06:32.206Z,6.57
2022-12-27T01:09:02.759Z,7.85
2022-12-27T01:11:30.971Z,5.75
2022-12-27T01:14:00.443Z,5.68
2022-12-27T01:16:30.343Z,8.85
2022-12-27T01:18:59.563Z,7.75
2022-12-27T01:21:30.735Z,7.03
2022-12-27T01:23:59.580Z,6.00
2022-12-27T01:26:29.270Z,6.93
2022-12-27T01:28:57.353Z,7.68
2022-12-27T01:31:27.887Z,7.93
2022-12-27T01:33:57.239Z,4.75
2022-12-27T01:36:26.555Z,6.90
2022-12-27T01:38:54.754Z,4.47
2022-12-27T01:41:42.638Z,6.25
2022-12-27T01:44:49.560Z,5.70
2022-12-27T01:47:24.335Z,11.73
2022-12-27T01:49:59.417Z,14.40
2022-12-27T01:52:35.028Z,16.63
2022-12-27T01:57:36.449Z,15.73
2022-12-27T02:03:51.897Z,16.77
2022-12-27T02:06:23.898Z,16.63
2022-12-27T02:09:00.335Z,16.23
2022-12-27T02:11:49.477Z,15.90
2022-12-27T02:14:24.726Z,15.85
2022-12-27T02:16:57.637Z,16.35
2022-12-27T02:19:37.871Z,14.63
2022-12-27T02:23:09.133Z,17.27
2022-12-27T02:25:54.398Z,17.70
2022-12-27T02:28:43.040Z,19.95
2022-12-27T02:31:18.004Z,18.02
2022-12-27T02:33:49.667Z,23.92
2022-12-27T02:36:24.149Z,21.17
2022-12-27T02:38:54.598Z,19.77
2022-12-27T02:41:40.566Z,22.83
2022-12-27T02:44:27.599Z,24.58
2022-12-27T02:47:13.667Z,26.20
2022-12-27T02:50:02.330Z,24.13
2022-12-27T02:52:59.184Z,23.02
2022-12-27T02:58:20.954Z,23.83
2022-12-27T03:01:14.554Z,23.05
2022-12-27T03:03:57.780Z,23.83
2022-12-27T03:06:42.681Z,25.95
2022-12-27T03:09:37.309Z,23.92
2022-12-27T03:12:26.796Z,20.98
2022-12-27T03:15:20.234Z,23.80
2022-12-27T03:17:54.429Z,22.38
2022-12-27T03:20:40.798Z,19.20
2022-12-27T03:25:57.669Z,15.15
2022-12-27T03:28:47.010Z,14.05
2022-12-27T03:31:39.452Z,15.32
2022-12-27T03:34:25.536Z,14.48
2022-12-27T03:37:13.323Z,13.45
2022-12-27T03:39:47.631Z,15.10
2022-12-27T03:42:39.012Z,13.63
2022-12-27T03:45:08.121Z,15.57
2022-12-27T03:47:39.060Z,16.88
2022-12-27T03:50:11.846Z,12.07
2022-12-27T03:52:44.109Z,13.13
2022-12-27T03:55:13.462Z,12.63
2022-12-27T03:57:42.154Z,10.55
2022-12-27T04:00:11.729Z,11.35
2022-12-27T04:02:45.026Z,8.85
2022-12-27T04:05:14.711Z,12.40
2022-12-27T04:08:04.024Z,12.32
2022-12-27T04:10:49.317Z,10.93
2022-12-27T04:13:34.959Z,10.20
2022-12-27T04:16:20.399Z,12.10
2022-12-27T04:19:05.788Z,10.30
2022-12-27T04:21:52.990Z,12.05
2022-12-27T04:24:38.186Z,10.40
2022-12-27T04:27:23.768Z,7.55
2022-12-27T04:30:09.057Z,8.37
2022-12-27T04:32:54.533Z,14.30
2022-12-27T04:35:22.591Z,6.93
2022-12-27T04:37:51.959Z,7.03
2022-12-27T04:40:36.483Z,7.03
2022-12-27T04:43:21.854Z,8.05
2022-12-27T04:46:07.382Z,4.85
2022-12-27T04:48:53.206Z,5.37
2022-12-27T04:51:38.401Z,7.32
2022-12-27T04:54:33.797Z,4.57
2022-12-27T04:57:02.104Z,5.60
2022-12-27T04:59:47.392Z,4.63
2022-12-27T05:02:16.262Z,6.18
2022-12-27T05:04:45.373Z,4.00
2022-12-27T05:07:32.655Z,5.50
2022-12-27T05:10:20.721Z,5.15
2022-12-27T05:13:06.081Z,4.38
2022-12-27T05:15:34.435Z,5.45
2022-12-27T05:18:02.545Z,4.18
2022-12-27T05:20:30.828Z,4.63
2022-12-27T05:23:16.006Z,3.10
2022-12-27T05:25:48.056Z,4.95
2022-12-27T05:28:16.310Z,4.05
2022-12-27T05:30:45.254Z,3.17
2022-12-27T05:33:13.376Z,5.07
2022-12-27T05:35:41.887Z,4.30
2022-12-27T05:38:10.080Z,4.30
2022-12-27T05:40:38.183Z,4.55
2022-12-27T05:43:07.769Z,5.30
2022-12-27T05:45:35.913Z,4.47
2022-12-27T05:48:06.288Z,3.97
2022-12-27T05:50:34.434Z,5.05
2022-12-27T05:53:11.933Z,2.85
2022-12-27T05:55:40.180Z,3.75
2022-12-27T05:58:09.652Z,5.00
2022-12-27T06:00:37.937Z,3.78
2022-12-27T06:03:06.203Z,6.13
2022-12-27T06:05:34.353Z,4.85
2022-12-27T06:08:02.598Z,3.63
2022-12-27T06:10:30.804Z,3.22
2022-12-27T06:13:01.022Z,4.93
2022-12-27T06:15:31.615Z,4.20
2022-12-27T06:18:00.626Z,4.10
2022-12-27T06:20:28.968Z,4.75
2022-12-27T06:22:59.523Z,2.70
2022-12-27T06:25:27.700Z,3.17
2022-12-27T06:27:55.782Z,2.25
2022-12-27T06:30:23.905Z,2.40
2022-12-27T06:32:53.721Z,1.75
2022-12-27T06:35:21.846Z,2.10
2022-12-27T06:37:50.050Z,1.58
2022-12-27T06:40:18.605Z,3.63
2022-12-27T06:42:46.838Z,3.00
2022-12-27T06:45:15.060Z,1.80
2022-12-27T06:47:43.238Z,2.38
2022-12-27T06:50:13.097Z,1.60
2022-12-27T06:52:41.334Z,2.08
2022-12-27T06:55:09.884Z,1.85
2022-12-27T06:57:38.087Z,3.25
2022-12-27T07:00:08.714Z,7.57
2022-12-27T07:02:36.928Z,2.67
2022-12-27T07:05:05.674Z,1.50
2022-12-27T07:07:35.370Z,1.80
2022-12-27T07:10:03.730Z,2.13
2022-12-27T07:12:36.399Z,9.57
2022-12-27T07:15:06.029Z,1.30
2022-12-27T07:17:35.815Z,1.58
2022-12-27T07:20:04.179Z,1.77
2022-12-27T07:22:32.550Z,2.25
2022-12-27T07:25:02.126Z,1.88
2022-12-27T07:27:30.506Z,1.63
2022-12-27T07:29:58.695Z,2.30
2022-12-27T07:32:26.910Z,2.92
2022-12-27T07:34:55.069Z,4.22
2022-12-27T07:37:24.033Z,4.80
2022-12-27T07:39:52.324Z,1.20
2022-12-27T07:42:23.836Z,2.03
2022-12-27T07:44:51.966Z,1.65
2022-12-27T07:47:20.304Z,1.27
2022-12-27T07:49:48.524Z,1.92
2022-12-27T07:52:16.849Z,2.35
2022-12-27T07:54:44.963Z,1.65
2022-12-27T07:57:13.212Z,2.70
2022-12-27T07:59:43.394Z,1.38
2022-12-27T08:02:13.631Z,2.08
2022-12-27T08:04:41.831Z,1.63
2022-12-27T08:07:15.683Z,0.65
2022-12-27T08:09:45.566Z,1.65
2022-12-27T08:12:14.827Z,2.25
2022-12-27T08:14:44.361Z,0.80
2022-12-27T08:17:20.459Z,2.20
2022-12-27T08:19:49.117Z,1.00
2022-12-27T08:22:17.256Z,1.20
2022-12-27T08:24:45.412Z,2.00
2022-12-27T08:27:13.883Z,0.88
2022-12-27T08:29:42.619Z,0.77
2022-12-27T08:32:12.217Z,1.08
2022-12-27T08:34:40.294Z,4.63
2022-12-27T08:37:09.267Z,1.48
2022-12-27T08:39:37.595Z,4.30
2022-12-27T08:42:06.125Z,1.00
2022-12-27T08:44:34.355Z,0.70
2022-12-27T08:47:04.000Z,0.85
2022-12-27T08:49:33.563Z,1.20
2022-12-27T08:52:01.707Z,2.15
2022-12-27T08:54:30.003Z,1.55
2022-12-27T08:56:58.090Z,1.13
2022-12-27T08:59:26.839Z,2.55
2022-12-27T09:01:55.044Z,1.45
2022-12-27T09:04:23.567Z,1.27
2022-12-27T09:06:53.204Z,0.50
2022-12-27T09:09:22.533Z,0.55
2022-12-27T09:11:50.949Z,0.85
2022-12-27T09:14:19.253Z,0.80
2022-12-27T09:16:47.435Z,1.20
2022-12-27T09:19:15.664Z,0.80
2022-12-27T09:21:44.226Z,0.70
2022-12-27T09:24:14.875Z,2.45
2022-12-27T09:26:43.180Z,0.55
2022-12-27T09:29:11.998Z,3.85
2022-12-27T09:31:40.234Z,1.42
2022-12-27T09:34:08.604Z,1.00
2022-12-27T09:36:39.864Z,2.17
2022-12-27T09:39:08.134Z,0.80
2022-12-27T09:44:48.782Z,0.70
2022-12-27T09:47:21.791Z,1.35
2022-12-27T09:49:54.071Z,1.10
2022-12-27T09:52:27.999Z,1.63
2022-12-27T09:55:05.170Z,0.82
2022-12-27T09:57:38.661Z,1.38
2022-12-27T10:00:15.924Z,3.28
2022-12-27T10:02:45.552Z,1.20
2022-12-27T10:05:22.361Z,1.15
2022-12-27T10:08:13.834Z,1.20
2022-12-27T10:10:45.464Z,2.78
2022-12-27T10:13:41.500Z,1.17
2022-12-27T10:16:19.292Z,0.80
2022-12-27T10:19:03.703Z,1.52
2022-12-27T10:21:36.279Z,2.03
2022-12-27T10:24:17.576Z,1.05
2022-12-27T10:26:46.072Z,0.85
2022-12-27T10:29:21.931Z,3.08
2022-12-27T10:34:24.754Z,2.10
2022-12-27T10:36:54.424Z,1.05
2022-12-27T10:39:27.747Z,2.58
2022-12-27T10:42:03.683Z,1.35
2022-12-27T10:44:33.485Z,1.70
2022-12-27T10:47:04.400Z,3.22
2022-12-27T10:49:33.989Z,1.58
2022-12-27T10:52:09.858Z,2.97
2022-12-27T10:57:25.190Z,1.02
2022-12-27T11:00:16.491Z,2.97
2022-12-27T11:02:52.240Z,2.03
2022-12-27T11:05:25.460Z,6.18
2022-12-27T11:07:53.834Z,1.77
2022-12-27T11:10:24.365Z,1.65
2022-12-27T11:13:00.177Z,1.20
2022-12-27T11:15:32.426Z,2.20
2022-12-27T11:18:03.229Z,0.85
2022-12-27T11:20:33.603Z,0.70
2022-12-27T11:23:04.155Z,1.40
2022-12-27T11:25:33.450Z,2.13
2022-12-27T11:28:04.231Z,1.85
2022-12-27T11:30:36.372Z,0.88
2022-12-27T11:33:19.622Z,4.38
2022-12-27T11:35:54.085Z,0.80
2022-12-27T11:38:26.994Z,0.75
2022-12-27T11:41:01.974Z,1.33
2022-12-27T11:43:32.752Z,2.15
2022-12-27T11:46:06.237Z,4.10
2022-12-27T11:48:39.573Z,0.93
2022-12-27T11:51:31.242Z,1.33
2022-12-27T11:54:19.746Z,1.73
2022-12-27T11:56:51.721Z,1.77
2022-12-27T11:59:37.941Z,2.17
2022-12-27T12:02:38.974Z,4.53
2022-12-27T12:05:42.142Z,2.33
2022-12-27T12:08:46.590Z,4.30
2022-12-27T12:11:30.722Z,1.08
2022-12-27T12:14:24.597Z,1.05
2022-12-27T12:17:06.378Z,2.38
2022-12-27T12:19:56.110Z,3.10
2022-12-27T12:22:40.822Z,2.17
2022-12-27T12:25:59.800Z,1.08
2022-12-27T12:29:00.764Z,1.60
2022-12-27T12:31:49.542Z,1.40
2022-12-27T12:34:35.101Z,1.83
2022-12-27T12:37:20.191Z,1.25
2022-12-27T12:40:05.280Z,1.25
2022-12-27T12:42:42.524Z,0.85
2022-12-27T12:45:56.792Z,1.50
2022-12-27T12:49:05.823Z,1.25
2022-12-27T12:51:59.088Z,0.88
2022-12-27T12:54:44.585Z,1.48
2022-12-27T12:57:30.650Z,2.58
2022-12-27T13:00:19.972Z,2.33
2022-12-27T13:03:17.132Z,1.50
2022-12-27T13:05:50.513Z,2.15
2022-12-27T13:08:27.067Z,2.45
2022-12-27T13:11:14.991Z,0.85
2022-12-27T13:13:58.068Z,1.80
2022-12-27T13:16:37.383Z,4.20
2022-12-27T13:19:36.490Z,0.80
2022-12-27T13:22:15.760Z,1.00
2022-12-27T13:24:57.141Z,1.05
2022-12-27T13:27:39.865Z,4.15
2022-12-27T13:30:19.880Z,1.65
2022-12-27T13:33:04.392Z,3.45
2022-12-27T13:38:27.004Z,1.33
2022-12-27T13:41:14.016Z,1.45
2022-12-27T13:43:54.987Z,4.10
2022-12-27T13:46:58.582Z,2.90
2022-12-27T13:49:41.203Z,1.92
2022-12-27T13:52:17.998Z,1.63
2022-12-27T13:55:18.036Z,2.70
2022-12-27T13:58:21.761Z,2.70
2022-12-27T14:01:01.792Z,4.13
2022-12-27T14:03:50.218Z,2.80
2022-12-27T14:06:31.955Z,2.17
2022-12-27T14:09:39.485Z,2.10
2022-12-27T14:12:40.895Z,2.03
2022-12-27T14:15:15.771Z,3.33
2022-12-27T14:17:52.908Z,3.75
2022-12-27T14:20:35.530Z,2.67
2022-12-27T14:23:21.423Z,2.90
2022-12-27T14:26:25.641Z,1.23
2022-12-27T14:29:27.771Z,5.47
2022-12-27T14:32:23.376Z,5.18
2022-12-27T14:35:24.712Z,3.22
2022-12-27T14:38:17.624Z,4.63
2022-12-27T14:41:17.831Z,9.68
2022-12-27T14:44:17.543Z,2.72
2022-12-27T14:47:22.191Z,7.55
2022-12-27T14:50:21.384Z,5.65
2022-12-27T14:53:16.084Z,5.20
2022-12-27T14:55:57.554Z,5.47
2022-12-27T14:58:36.296Z,11.80
2022-12-27T15:01:11.647Z,16.08
2022-12-27T15:03:54.648Z,13.68
2022-12-27T15:06:41.369Z,5.45
2022-12-27T15:09:20.112Z,3.83
2022-12-27T15:12:09.024Z,5.75
2022-12-27T15:14:59.753Z,7.82
2022-12-27T15:17:45.534Z,10.25
2022-12-27T15:20:33.319Z,6.43
2022-12-27T15:23:13.283Z,4.25
2022-12-27T15:25:54.694Z,3.95
2022-12-27T15:28:35.390Z,3.50
2022-12-27T15:31:10.663Z,5.95
2022-12-27T15:33:51.333Z,4.70
2022-12-27T15:36:22.054Z,4.22
2022-12-27T15:38:54.587Z,12.57
2022-12-27T15:41:52.316Z,8.07
2022-12-27T15:44:36.381Z,12.73
2022-12-27T15:47:35.890Z,16.27
2022-12-27T15:50:36.161Z,55.83
2022-12-27T15:53:18.212Z,35.28
2022-12-27T15:56:28.110Z,28.52
2022-12-27T15:59:35.327Z,35.70
2022-12-27T16:02:35.919Z,11.70
2022-12-27T16:05:12.634Z,8.85
2022-12-27T16:07:46.938Z,3.20
2022-12-27T16:10:50.597Z,5.65
2022-12-27T16:13:34.505Z,4.80
2022-12-27T16:16:10.551Z,4.93
2022-12-27T16:19:10.927Z,4.13
2022-12-27T16:21:43.722Z,4.25
2022-12-27T16:24:17.563Z,2.78
2022-12-27T16:26:56.486Z,3.13
2022-12-27T16:29:30.169Z,4.18
2022-12-27T16:32:24.722Z,7.47
2022-12-27T16:34:56.411Z,4.43
2022-12-27T16:37:29.460Z,3.65
2022-12-27T16:40:25.041Z,3.35
2022-12-27T16:43:33.560Z,4.60
2022-12-27T16:46:15.573Z,5.18
2022-12-27T16:49:03.909Z,3.78
2022-12-27T16:51:44.332Z,2.25
2022-12-27T16:54:33.186Z,6.38
2022-12-27T16:57:42.211Z,8.00
2022-12-27T17:00:35.967Z,12.88
2022-12-27T17:03:30.350Z,8.18
2022-12-27T17:09:28.673Z,14.52
2022-12-27T17:12:07.749Z,20.25
2022-12-27T17:14:38.536Z,9.35
2022-12-27T17:17:11.860Z,5.47
2022-12-27T17:19:45.523Z,5.28
2022-12-27T17:22:16.718Z,7.15
2022-12-27T17:24:46.998Z,5.72
2022-12-27T17:27:36.252Z,8.40
2022-12-27T17:30:12.291Z,7.65
2022-12-27T17:33:03.605Z,8.18
2022-12-27T17:35:39.601Z,7.13
2022-12-27T17:40:50.428Z,6.03
2022-12-27T17:43:49.227Z,7.80
2022-12-27T17:46:29.709Z,4.85
2022-12-27T17:48:58.764Z,11.43
2022-12-27T17:51:28.767Z,10.75
2022-12-27T17:54:15.191Z,6.72
2022-12-27T17:59:33.179Z,10.93
2022-12-27T18:02:06.876Z,8.18
2022-12-27T18:04:37.714Z,12.93
2022-12-27T18:07:13.819Z,15.95
2022-12-27T18:09:45.158Z,19.15
2022-12-27T18:12:18.931Z,17.30
2022-12-27T18:14:55.489Z,13.07
2022-12-27T18:17:29.288Z,23.08
2022-12-27T18:19:58.060Z,18.85
2022-12-27T18:22:26.814Z,23.42
2022-12-27T18:24:55.226Z,22.25
2022-12-27T18:27:25.788Z,8.07
2022-12-27T18:29:55.633Z,4.75
2022-12-27T18:32:25.943Z,5.43
2022-12-27T18:34:57.638Z,4.72
2022-12-27T18:37:29.090Z,8.73
2022-12-27T18:40:00.371Z,3.65
2022-12-27T18:42:35.723Z,5.40
2022-12-27T18:45:08.274Z,6.35
2022-12-27T18:47:47.751Z,14.80
2022-12-27T18:50:19.999Z,11.55
2022-12-27T18:52:53.103Z,13.13
2022-12-27T18:55:26.983Z,16.10
2022-12-27T18:58:05.648Z,19.48
2022-12-27T19:00:48.943Z,23.70
2022-12-27T19:03:19.141Z,36.38
2022-12-27T19:06:04.099Z,34.47
2022-12-27T19:08:39.214Z,27.13
2022-12-27T19:11:08.326Z,29.17
2022-12-27T19:13:43.803Z,32.05
2022-12-27T19:16:23.421Z,35.30
2022-12-27T19:18:54.649Z,52.70
2022-12-27T19:21:31.576Z,29.98
2022-12-27T19:24:19.638Z,19.75
2022-12-27T19:26:48.167Z,19.73
2022-12-27T19:29:18.196Z,15.93
2022-12-27T19:31:57.374Z,14.18
2022-12-27T19:34:28.173Z,14.27
2022-12-27T19:36:57.392Z,10.35
2022-12-27T19:39:28.606Z,7.03
2022-12-27T19:42:01.455Z,9.90
2022-12-27T19:44:30.532Z,8.25
2022-12-27T19:47:02.206Z,10.15
2022-12-27T19:49:45.880Z,12.93
2022-12-27T19:52:19.049Z,12.05
2022-12-27T19:54:47.833Z,8.13
2022-12-27T19:57:16.200Z,13.68
2022-12-27T19:59:44.421Z,15.07
2022-12-27T20:02:14.336Z,15.50
2022-12-27T20:04:42.806Z,31.73
2022-12-27T20:07:18.881Z,24.80
2022-12-27T20:12:17.722Z,42.88
2022-12-27T20:14:45.981Z,74.95
2022-12-27T20:17:18.987Z,46.35
2022-12-27T20:19:51.788Z,75.28
2022-12-27T20:22:20.044Z,94.15
2022-12-27T20:24:48.283Z,90.25
2022-12-27T20:27:16.592Z,77.68
2022-12-27T20:29:45.167Z,71.70
2022-12-27T20:32:13.723Z,82.10
2022-12-27T20:34:43.407Z,95.35
2022-12-27T20:37:12.249Z,83.88
2022-12-27T20:39:40.606Z,176.65
2022-12-27T20:42:08.892Z,89.50
2022-12-27T20:44:37.111Z,67.40
2022-12-27T20:47:05.401Z,56.05
2022-12-27T20:49:33.596Z,37.15
2022-12-27T20:52:03.194Z,29.77
2022-12-27T20:54:31.377Z,25.92
2022-12-27T20:56:59.470Z,16.60
2022-12-27T20:59:27.995Z,21.52
2022-12-27T21:01:57.350Z,18.50
2022-12-27T21:04:26.846Z,16.75
2022-12-27T21:06:54.968Z,18.73
2022-12-27T21:09:24.870Z,27.25
2022-12-27T21:11:53.473Z,26.55
2022-12-27T21:14:21.715Z,36.47
2022-12-27T21:16:50.065Z,30.55
2022-12-27T21:19:22.241Z,30.45
2022-12-27T21:21:50.458Z,33.90
2022-12-27T21:24:18.597Z,33.17
2022-12-27T21:26:51.965Z,31.48
2022-12-27T21:29:24.200Z,35.15
2022-12-27T21:31:52.781Z,33.20
2022-12-27T21:34:23.037Z,28.48
2022-12-27T21:36:55.186Z,37.10
2022-12-27T21:39:23.542Z,48.00
2022-12-27T21:41:53.036Z,75.95
2022-12-27T21:44:25.346Z,70.18
2022-12-27T21:46:53.604Z,64.20
2022-12-27T21:49:21.868Z,62.95
2022-12-27T21:51:50.223Z,62.38
2022-12-27T21:54:18.752Z,61.65
2022-12-27T21:56:47.214Z,64.07
2022-12-27T21:59:16.742Z,59.58
2022-12-27T22:01:51.478Z,64.88
2022-12-27T22:04:21.411Z,60.92
2022-12-27T22:06:49.986Z,64.57
2022-12-27T22:09:19.389Z,68.57
2022-12-27T22:11:47.993Z,83.38
2022-12-27T22:14:21.809Z,87.35
2022-12-27T22:16:53.340Z,78.65
2022-12-27T22:19:21.684Z,79.22
2022-12-27T22:21:49.873Z,78.38
2022-12-27T22:24:19.721Z,85.65
2022-12-27T22:26:50.300Z,79.72
2022-12-27T22:29:21.699Z,77.05
2022-12-27T22:31:51.881Z,76.50
2022-12-27T22:34:19.990Z,71.25
2022-12-27T22:36:51.986Z,76.03
2022-12-27T22:39:20.067Z,58.38
2022-12-27T22:41:48.192Z,58.88
2022-12-27T22:44:16.594Z,71.65
2022-12-27T22:49:36.287Z,58.30
2022-12-27T22:52:04.667Z,54.30
2022-12-27T22:55:04.581Z,52.65
2022-12-27T22:57:21.045Z,36.67
2022-12-27T22:59:49.060Z,41.47
2022-12-27T23:02:18.722Z,46.78
2022-12-27T23:04:46.869Z,47.58
2022-12-27T23:07:20.075Z,53.15
2022-12-27T23:09:48.371Z,63.92
2022-12-27T23:12:16.480Z,52.67
2022-12-27T23:14:44.541Z,40.95
2022-12-27T23:17:12.620Z,37.65
2022-12-27T23:19:44.059Z,46.20
2022-12-27T23:22:12.158Z,45.70
2022-12-27T23:24:40.309Z,50.78
2022-12-27T23:27:08.419Z,40.25
2022-12-27T23:29:36.482Z,42.17
2022-12-27T23:32:04.926Z,45.88
2022-12-27T23:34:33.091Z,44.22
2022-12-27T23:37:02.571Z,45.75
2022-12-27T23:39:33.618Z,38.80
2022-12-27T23:42:01.669Z,36.42
2022-12-27T23:44:34.536Z,41.25
2022-12-27T23:47:05.516Z,37.38
2022-12-27T23:49:33.821Z,35.92
2022-12-27T23:52:04.712Z,32.90
2022-12-27T23:54:32.694Z,37.88
2022-12-27T23:57:19.830Z,61.30
2022-12-27T23:59:49.594Z,47.38
